sensor_id;sensor_type;location;lat;lon;timestamp;temperature;humidity
21722;DHT22;11023;48.274;7.794;2022-11-20T00:00:27;7.90;99.90
21722;DHT22;11023;48.274;7.794;2022-11-20T00:02:52;7.80;99.90
21722;DHT22;11023;48.274;7.794;2022-11-20T00:05:18;7.90;99.90
21722;DHT22;11023;48.274;7.794;2022-11-20T00:07:44;7.80;99.90
21722;DHT22;11023;48.274;7.794;2022-11-20T00:10:10;7.80;99.90
21722;DHT22;11023;48.274;7.794;2022-11-20T00:12:36;7.80;99.90
21722;DHT22;11023;48.274;7.794;2022-11-20T00:15:02;7.80;99.90
21722;DHT22;11023;48.274;7.794;2022-11-20T00:17:29;7.80;99.90
21722;DHT22;11023;48.274;7.794;2022-11-20T00:19:54;7.80;99.90
21722;DHT22;11023;48.274;7.794;2022-11-20T00:22:20;7.80;99.90
21722;DHT22;11023;48.274;7.794;2022-11-20T00:24:46;7.80;99.90
21722;DHT22;11023;48.274;7.794;2022-11-20T00:27:12;7.80;99.90
21722;DHT22;11023;48.274;7.794;2022-11-20T00:29:37;7.80;99.90
21722;DHT22;11023;48.274;7.794;2022-11-20T00:32:03;7.80;99.90
21722;DHT22;11023;48.274;7.794;2022-11-20T00:34:28;7.80;99.90
21722;DHT22;11023;48.274;7.794;2022-11-20T00:36:54;7.80;99.90
21722;DHT22;11023;48.274;7.794;2022-11-20T00:39:20;7.80;99.90
21722;DHT22;11023;48.274;7.794;2022-11-20T00:41:46;7.80;99.90
21722;DHT22;11023;48.274;7.794;2022-11-20T00:44:11;7.80;99.90
21722;DHT22;11023;48.274;7.794;2022-11-20T00:46:37;7.80;99.90
21722;DHT22;11023;48.274;7.794;2022-11-20T00:49:03;7.90;99.90
21722;DHT22;11023;48.274;7.794;2022-11-20T00:51:28;7.90;99.90
21722;DHT22;11023;48.274;7.794;2022-11-20T00:53:58;7.90;99.90
21722;DHT22;11023;48.274;7.794;2022-11-20T00:56:25;7.90;99.90
21722;DHT22;11023;48.274;7.794;2022-11-20T00:58:51;7.90;99.90
21722;DHT22;11023;48.274;7.794;2022-11-20T01:01:22;7.90;99.90
21722;DHT22;11023;48.274;7.794;2022-11-20T01:03:53;7.90;99.90
21722;DHT22;11023;48.274;7.794;2022-11-20T01:06:22;7.90;99.90
21722;DHT22;11023;48.274;7.794;2022-11-20T01:08:49;7.90;99.90
21722;DHT22;11023;48.274;7.794;2022-11-20T01:11:38;7.90;99.90
21722;DHT22;11023;48.274;7.794;2022-11-20T01:14:06;7.80;99.90
21722;DHT22;11023;48.274;7.794;2022-11-20T01:16:34;7.80;99.90
21722;DHT22;11023;48.274;7.794;2022-11-20T01:19:02;7.80;99.90
21722;DHT22;11023;48.274;7.794;2022-11-20T01:21:35;7.80;99.90
21722;DHT22;11023;48.274;7.794;2022-11-20T01:24:01;7.80;99.90
21722;DHT22;11023;48.274;7.794;2022-11-20T01:26:30;7.80;99.90
21722;DHT22;11023;48.274;7.794;2022-11-20T01:28:56;7.70;99.90
21722;DHT22;11023;48.274;7.794;2022-11-20T01:31:28;7.80;99.90
21722;DHT22;11023;48.274;7.794;2022-11-20T01:33:59;7.80;99.90
21722;DHT22;11023;48.274;7.794;2022-11-20T01:36:28;7.70;99.90
21722;DHT22;11023;48.274;7.794;2022-11-20T01:38:55;7.70;99.90
21722;DHT22;11023;48.274;7.794;2022-11-20T01:41:23;7.70;99.90
21722;DHT22;11023;48.274;7.794;2022-11-20T01:44:11;7.70;99.90
21722;DHT22;11023;48.274;7.794;2022-11-20T01:46:39;7.70;99.90
21722;DHT22;11023;48.274;7.794;2022-11-20T01:49:16;7.70;99.90
21722;DHT22;11023;48.274;7.794;2022-11-20T01:51:52;7.60;99.90
21722;DHT22;11023;48.274;7.794;2022-11-20T01:57:16;7.60;99.90
21722;DHT22;11023;48.274;7.794;2022-11-20T01:59:47;7.70;99.90
21722;DHT22;11023;48.274;7.794;2022-11-20T02:02:14;7.60;99.90
21722;DHT22;11023;48.274;7.794;2022-11-20T02:04:40;7.60;99.90
21722;DHT22;11023;48.274;7.794;2022-11-20T02:07:06;7.70;99.90
21722;DHT22;11023;48.274;7.794;2022-11-20T02:09:32;7.70;99.90
21722;DHT22;11023;48.274;7.794;2022-11-20T02:11:58;7.60;99.90
21722;DHT22;11023;48.274;7.794;2022-11-20T02:14:25;7.60;99.90
21722;DHT22;11023;48.274;7.794;2022-11-20T02:16:51;7.60;99.90
21722;DHT22;11023;48.274;7.794;2022-11-20T02:19:30;7.50;99.90
21722;DHT22;11023;48.274;7.794;2022-11-20T02:21:59;7.50;99.90
21722;DHT22;11023;48.274;7.794;2022-11-20T02:24:26;7.50;99.90
21722;DHT22;11023;48.274;7.794;2022-11-20T02:27:07;7.40;99.90
21722;DHT22;11023;48.274;7.794;2022-11-20T02:29:59;7.50;99.90
21722;DHT22;11023;48.274;7.794;2022-11-20T02:34:53;7.40;99.90
21722;DHT22;11023;48.274;7.794;2022-11-20T02:37:20;7.40;99.90
21722;DHT22;11023;48.274;7.794;2022-11-20T02:39:47;7.40;99.90
21722;DHT22;11023;48.274;7.794;2022-11-20T02:42:14;7.40;99.90
21722;DHT22;11023;48.274;7.794;2022-11-20T02:44:40;7.40;99.90
21722;DHT22;11023;48.274;7.794;2022-11-20T02:47:06;7.40;99.90
21722;DHT22;11023;48.274;7.794;2022-11-20T02:49:32;7.40;99.90
21722;DHT22;11023;48.274;7.794;2022-11-20T02:51:58;7.40;99.90
21722;DHT22;11023;48.274;7.794;2022-11-20T02:54:24;7.40;99.90
21722;DHT22;11023;48.274;7.794;2022-11-20T02:56:50;7.30;99.90
21722;DHT22;11023;48.274;7.794;2022-11-20T02:59:15;7.30;99.90
21722;DHT22;11023;48.274;7.794;2022-11-20T03:01:41;7.30;99.90
21722;DHT22;11023;48.274;7.794;2022-11-20T03:04:07;7.30;99.90
21722;DHT22;11023;48.274;7.794;2022-11-20T03:06:33;7.30;99.90
21722;DHT22;11023;48.274;7.794;2022-11-20T03:08:59;7.40;99.90
21722;DHT22;11023;48.274;7.794;2022-11-20T03:11:25;7.40;99.90
21722;DHT22;11023;48.274;7.794;2022-11-20T03:13:50;7.40;99.90
21722;DHT22;11023;48.274;7.794;2022-11-20T03:16:19;7.40;99.90
21722;DHT22;11023;48.274;7.794;2022-11-20T03:18:45;7.50;99.90
21722;DHT22;11023;48.274;7.794;2022-11-20T03:21:13;7.40;99.90
21722;DHT22;11023;48.274;7.794;2022-11-20T03:23:39;7.50;99.90
21722;DHT22;11023;48.274;7.794;2022-11-20T03:26:12;7.50;99.90
21722;DHT22;11023;48.274;7.794;2022-11-20T03:28:38;7.50;99.90
21722;DHT22;11023;48.274;7.794;2022-11-20T03:31:09;7.50;99.90
21722;DHT22;11023;48.274;7.794;2022-11-20T03:33:35;7.50;99.90
21722;DHT22;11023;48.274;7.794;2022-11-20T03:36:05;7.60;99.90
21722;DHT22;11023;48.274;7.794;2022-11-20T03:38:32;7.50;99.90
21722;DHT22;11023;48.274;7.794;2022-11-20T03:41:03;7.50;99.90
21722;DHT22;11023;48.274;7.794;2022-11-20T03:43:30;7.60;99.90
21722;DHT22;11023;48.274;7.794;2022-11-20T03:45:55;7.60;99.90
21722;DHT22;11023;48.274;7.794;2022-11-20T03:48:21;7.60;99.90
21722;DHT22;11023;48.274;7.794;2022-11-20T03:50:47;7.60;99.90
21722;DHT22;11023;48.274;7.794;2022-11-20T03:53:14;7.60;99.90
21722;DHT22;11023;48.274;7.794;2022-11-20T03:55:39;7.70;99.90
21722;DHT22;11023;48.274;7.794;2022-11-20T03:58:05;7.70;99.90
21722;DHT22;11023;48.274;7.794;2022-11-20T04:00:31;7.60;99.90
21722;DHT22;11023;48.274;7.794;2022-11-20T04:03:00;7.60;99.90
21722;DHT22;11023;48.274;7.794;2022-11-20T04:05:26;7.60;99.90
21722;DHT22;11023;48.274;7.794;2022-11-20T04:07:53;7.60;99.90
21722;DHT22;11023;48.274;7.794;2022-11-20T04:10:19;7.60;99.90
21722;DHT22;11023;48.274;7.794;2022-11-20T04:12:45;7.60;99.90
21722;DHT22;11023;48.274;7.794;2022-11-20T04:15:10;7.60;99.90
21722;DHT22;11023;48.274;7.794;2022-11-20T04:17:36;7.50;99.90
21722;DHT22;11023;48.274;7.794;2022-11-20T04:20:03;7.60;99.90
21722;DHT22;11023;48.274;7.794;2022-11-20T04:22:29;7.60;99.90
21722;DHT22;11023;48.274;7.794;2022-11-20T04:24:56;7.50;99.90
21722;DHT22;11023;48.274;7.794;2022-11-20T04:27:24;7.50;99.90
21722;DHT22;11023;48.274;7.794;2022-11-20T04:29:54;7.50;99.90
21722;DHT22;11023;48.274;7.794;2022-11-20T04:32:22;7.50;99.90
21722;DHT22;11023;48.274;7.794;2022-11-20T04:35:12;7.50;99.90
21722;DHT22;11023;48.274;7.794;2022-11-20T04:37:51;7.60;99.90
21722;DHT22;11023;48.274;7.794;2022-11-20T04:40:18;7.60;99.90
21722;DHT22;11023;48.274;7.794;2022-11-20T04:42:48;7.60;99.90
21722;DHT22;11023;48.274;7.794;2022-11-20T04:45:27;7.60;99.90
21722;DHT22;11023;48.274;7.794;2022-11-20T04:47:57;7.50;99.90
21722;DHT22;11023;48.274;7.794;2022-11-20T04:50:33;7.50;99.90
21722;DHT22;11023;48.274;7.794;2022-11-20T04:53:29;7.50;99.90
21722;DHT22;11023;48.274;7.794;2022-11-20T04:56:08;7.50;99.90
21722;DHT22;11023;48.274;7.794;2022-11-20T04:58:49;7.50;99.90
21722;DHT22;11023;48.274;7.794;2022-11-20T05:01:23;7.50;99.90
21722;DHT22;11023;48.274;7.794;2022-11-20T05:03:54;7.50;99.90
21722;DHT22;11023;48.274;7.794;2022-11-20T05:06:27;7.50;99.90
21722;DHT22;11023;48.274;7.794;2022-11-20T05:09:03;7.40;99.90
21722;DHT22;11023;48.274;7.794;2022-11-20T05:11:40;7.40;99.90
21722;DHT22;11023;48.274;7.794;2022-11-20T05:14:34;7.50;99.90
21722;DHT22;11023;48.274;7.794;2022-11-20T05:17:17;7.40;99.90
21722;DHT22;11023;48.274;7.794;2022-11-20T05:19:44;7.40;99.90
21722;DHT22;11023;48.274;7.794;2022-11-20T05:22:13;7.40;99.90
21722;DHT22;11023;48.274;7.794;2022-11-20T05:25:02;7.40;99.90
21722;DHT22;11023;48.274;7.794;2022-11-20T05:27:27;7.40;99.90
21722;DHT22;11023;48.274;7.794;2022-11-20T05:29:58;7.40;99.90
21722;DHT22;11023;48.274;7.794;2022-11-20T05:32:25;7.50;99.90
21722;DHT22;11023;48.274;7.794;2022-11-20T05:34:52;7.40;99.90
21722;DHT22;11023;48.274;7.794;2022-11-20T05:37:19;7.50;99.90
21722;DHT22;11023;48.274;7.794;2022-11-20T05:39:45;7.50;99.90
21722;DHT22;11023;48.274;7.794;2022-11-20T05:42:14;7.40;99.90
21722;DHT22;11023;48.274;7.794;2022-11-20T05:45:03;7.50;99.90
21722;DHT22;11023;48.274;7.794;2022-11-20T05:47:33;7.50;99.90
21722;DHT22;11023;48.274;7.794;2022-11-20T05:50:01;7.50;99.90
21722;DHT22;11023;48.274;7.794;2022-11-20T05:52:52;7.50;99.90
21722;DHT22;11023;48.274;7.794;2022-11-20T05:55:20;7.50;99.90
21722;DHT22;11023;48.274;7.794;2022-11-20T05:57:47;7.50;99.90
21722;DHT22;11023;48.274;7.794;2022-11-20T06:00:14;7.50;99.90
21722;DHT22;11023;48.274;7.794;2022-11-20T06:02:40;7.60;99.90
21722;DHT22;11023;48.274;7.794;2022-11-20T06:05:11;7.50;99.90
21722;DHT22;11023;48.274;7.794;2022-11-20T06:07:47;7.60;99.90
21722;DHT22;11023;48.274;7.794;2022-11-20T06:10:34;7.60;99.90
21722;DHT22;11023;48.274;7.794;2022-11-20T06:15:38;7.60;99.90
21722;DHT22;11023;48.274;7.794;2022-11-20T06:18:06;7.60;99.90
21722;DHT22;11023;48.274;7.794;2022-11-20T06:20:33;7.60;99.90
21722;DHT22;11023;48.274;7.794;2022-11-20T06:23:00;7.60;99.90
21722;DHT22;11023;48.274;7.794;2022-11-20T06:25:26;7.60;99.90
21722;DHT22;11023;48.274;7.794;2022-11-20T06:27:57;7.60;99.90
21722;DHT22;11023;48.274;7.794;2022-11-20T06:30:23;7.60;99.90
21722;DHT22;11023;48.274;7.794;2022-11-20T06:32:50;7.60;99.90
21722;DHT22;11023;48.274;7.794;2022-11-20T06:35:16;7.60;99.90
21722;DHT22;11023;48.274;7.794;2022-11-20T06:37:43;7.60;99.90
21722;DHT22;11023;48.274;7.794;2022-11-20T06:40:10;7.60;99.90
21722;DHT22;11023;48.274;7.794;2022-11-20T06:42:48;7.60;99.90
21722;DHT22;11023;48.274;7.794;2022-11-20T06:45:16;7.60;99.90
21722;DHT22;11023;48.274;7.794;2022-11-20T06:47:41;7.70;99.90
21722;DHT22;11023;48.274;7.794;2022-11-20T06:50:08;7.70;99.90
21722;DHT22;11023;48.274;7.794;2022-11-20T06:52:33;7.70;99.90
21722;DHT22;11023;48.274;7.794;2022-11-20T06:54:59;7.70;99.90
21722;DHT22;11023;48.274;7.794;2022-11-20T06:57:26;7.70;99.90
21722;DHT22;11023;48.274;7.794;2022-11-20T06:59:52;7.70;99.90
21722;DHT22;11023;48.274;7.794;2022-11-20T07:02:22;7.70;99.90
21722;DHT22;11023;48.274;7.794;2022-11-20T07:04:49;7.70;99.90
21722;DHT22;11023;48.274;7.794;2022-11-20T07:07:16;7.70;99.90
21722;DHT22;11023;48.274;7.794;2022-11-20T07:09:43;7.70;99.90
21722;DHT22;11023;48.274;7.794;2022-11-20T07:12:12;7.80;99.90
21722;DHT22;11023;48.274;7.794;2022-11-20T07:14:48;7.80;99.90
21722;DHT22;11023;48.274;7.794;2022-11-20T07:17:22;7.80;99.90
21722;DHT22;11023;48.274;7.794;2022-11-20T07:19:49;7.80;99.90
21722;DHT22;11023;48.274;7.794;2022-11-20T07:22:16;7.80;99.90
21722;DHT22;11023;48.274;7.794;2022-11-20T07:24:45;7.90;99.90
21722;DHT22;11023;48.274;7.794;2022-11-20T07:27:15;7.80;99.90
21722;DHT22;11023;48.274;7.794;2022-11-20T07:29:42;7.80;99.90
21722;DHT22;11023;48.274;7.794;2022-11-20T07:32:19;7.80;99.90
21722;DHT22;11023;48.274;7.794;2022-11-20T07:34:47;7.80;99.90
21722;DHT22;11023;48.274;7.794;2022-11-20T07:37:15;7.80;99.90
21722;DHT22;11023;48.274;7.794;2022-11-20T07:39:42;7.90;99.90
21722;DHT22;11023;48.274;7.794;2022-11-20T07:42:08;7.90;99.90
21722;DHT22;11023;48.274;7.794;2022-11-20T07:44:35;7.90;99.90
21722;DHT22;11023;48.274;7.794;2022-11-20T07:47:01;7.90;99.90
21722;DHT22;11023;48.274;7.794;2022-11-20T07:49:27;7.90;99.90
21722;DHT22;11023;48.274;7.794;2022-11-20T07:51:53;7.90;99.90
21722;DHT22;11023;48.274;7.794;2022-11-20T07:54:20;7.90;99.90
21722;DHT22;11023;48.274;7.794;2022-11-20T07:56:47;7.90;99.90
21722;DHT22;11023;48.274;7.794;2022-11-20T07:59:13;7.90;99.90
21722;DHT22;11023;48.274;7.794;2022-11-20T08:01:40;7.90;99.90
21722;DHT22;11023;48.274;7.794;2022-11-20T08:04:06;7.90;99.90
21722;DHT22;11023;48.274;7.794;2022-11-20T08:06:32;7.90;99.90
21722;DHT22;11023;48.274;7.794;2022-11-20T08:08:58;7.90;99.90
21722;DHT22;11023;48.274;7.794;2022-11-20T08:11:24;7.90;99.90
21722;DHT22;11023;48.274;7.794;2022-11-20T08:14:08;7.90;99.90
21722;DHT22;11023;48.274;7.794;2022-11-20T08:16:37;7.90;99.90
21722;DHT22;11023;48.274;7.794;2022-11-20T08:19:03;7.90;99.90
21722;DHT22;11023;48.274;7.794;2022-11-20T08:21:30;7.90;99.90
21722;DHT22;11023;48.274;7.794;2022-11-20T08:23:57;7.90;99.90
21722;DHT22;11023;48.274;7.794;2022-11-20T08:26:23;7.90;99.90
21722;DHT22;11023;48.274;7.794;2022-11-20T08:28:49;7.90;99.90
21722;DHT22;11023;48.274;7.794;2022-11-20T08:31:15;8.00;99.90
21722;DHT22;11023;48.274;7.794;2022-11-20T08:33:40;8.00;99.90
21722;DHT22;11023;48.274;7.794;2022-11-20T08:36:06;8.00;99.90
21722;DHT22;11023;48.274;7.794;2022-11-20T08:38:33;8.00;99.90
21722;DHT22;11023;48.274;7.794;2022-11-20T08:41:00;8.00;99.90
21722;DHT22;11023;48.274;7.794;2022-11-20T08:43:44;8.00;99.90
21722;DHT22;11023;48.274;7.794;2022-11-20T08:46:10;8.00;99.90
21722;DHT22;11023;48.274;7.794;2022-11-20T08:48:36;8.10;99.90
21722;DHT22;11023;48.274;7.794;2022-11-20T08:51:02;8.10;99.90
21722;DHT22;11023;48.274;7.794;2022-11-20T08:53:28;8.10;99.90
21722;DHT22;11023;48.274;7.794;2022-11-20T08:55:56;8.10;99.90
21722;DHT22;11023;48.274;7.794;2022-11-20T08:58:21;8.10;99.90
21722;DHT22;11023;48.274;7.794;2022-11-20T09:00:47;8.10;99.90
21722;DHT22;11023;48.274;7.794;2022-11-20T09:03:13;8.10;99.90
21722;DHT22;11023;48.274;7.794;2022-11-20T09:05:39;8.10;99.90
21722;DHT22;11023;48.274;7.794;2022-11-20T09:08:05;8.10;99.90
21722;DHT22;11023;48.274;7.794;2022-11-20T09:10:31;8.10;99.90
21722;DHT22;11023;48.274;7.794;2022-11-20T09:12:58;8.10;99.90
21722;DHT22;11023;48.274;7.794;2022-11-20T09:15:25;8.20;99.90
21722;DHT22;11023;48.274;7.794;2022-11-20T09:17:55;8.10;99.90
21722;DHT22;11023;48.274;7.794;2022-11-20T09:20:22;8.20;99.90
21722;DHT22;11023;48.274;7.794;2022-11-20T09:22:48;8.20;99.90
21722;DHT22;11023;48.274;7.794;2022-11-20T09:25:14;8.30;99.90
21722;DHT22;11023;48.274;7.794;2022-11-20T09:27:41;8.30;99.90
21722;DHT22;11023;48.274;7.794;2022-11-20T09:30:16;8.40;99.90
21722;DHT22;11023;48.274;7.794;2022-11-20T09:32:42;8.40;99.90
21722;DHT22;11023;48.274;7.794;2022-11-20T09:35:09;8.50;99.90
21722;DHT22;11023;48.274;7.794;2022-11-20T09:37:35;8.50;99.90
21722;DHT22;11023;48.274;7.794;2022-11-20T09:40:01;8.60;99.90
21722;DHT22;11023;48.274;7.794;2022-11-20T09:42:47;8.60;99.90
21722;DHT22;11023;48.274;7.794;2022-11-20T09:51:15;9.00;99.90
21722;DHT22;11023;48.274;7.794;2022-11-20T09:56:20;9.10;99.90
21722;DHT22;11023;48.274;7.794;2022-11-20T09:58:55;9.20;99.90
21722;DHT22;11023;48.274;7.794;2022-11-20T10:01:30;9.30;99.90
21722;DHT22;11023;48.274;7.794;2022-11-20T10:04:02;9.40;99.90
21722;DHT22;11023;48.274;7.794;2022-11-20T10:06:34;9.50;99.90
21722;DHT22;11023;48.274;7.794;2022-11-20T10:25:17;10.20;99.90
21722;DHT22;11023;48.274;7.794;2022-11-20T10:30:27;10.40;99.90
21722;DHT22;11023;48.274;7.794;2022-11-20T10:33:04;10.60;99.90
21722;DHT22;11023;48.274;7.794;2022-11-20T10:35:49;10.70;99.90
21722;DHT22;11023;48.274;7.794;2022-11-20T10:38:21;10.80;99.90
21722;DHT22;11023;48.274;7.794;2022-11-20T10:40:57;10.80;99.90
21722;DHT22;11023;48.274;7.794;2022-11-20T10:43:44;10.80;99.90
21722;DHT22;11023;48.274;7.794;2022-11-20T10:46:15;10.80;99.90
21722;DHT22;11023;48.274;7.794;2022-11-20T10:48:44;10.80;99.90
21722;DHT22;11023;48.274;7.794;2022-11-20T10:51:15;10.70;99.90
21722;DHT22;11023;48.274;7.794;2022-11-20T10:56:51;10.60;99.90
21722;DHT22;11023;48.274;7.794;2022-11-20T10:59:24;10.50;99.90
21722;DHT22;11023;48.274;7.794;2022-11-20T11:01:52;10.40;99.90
21722;DHT22;11023;48.274;7.794;2022-11-20T11:04:46;10.40;99.90
21722;DHT22;11023;48.274;7.794;2022-11-20T11:09:49;10.40;99.90
21722;DHT22;11023;48.274;7.794;2022-11-20T11:12:15;10.40;99.90
21722;DHT22;11023;48.274;7.794;2022-11-20T11:14:46;10.40;99.90
21722;DHT22;11023;48.274;7.794;2022-11-20T11:17:45;10.40;99.90
21722;DHT22;11023;48.274;7.794;2022-11-20T11:20:15;10.60;99.90
21722;DHT22;11023;48.274;7.794;2022-11-20T11:22:51;10.80;99.90
21722;DHT22;11023;48.274;7.794;2022-11-20T11:25:28;10.90;99.90
21722;DHT22;11023;48.274;7.794;2022-11-20T11:27:59;11.10;99.90
21722;DHT22;11023;48.274;7.794;2022-11-20T11:30:26;11.20;99.90
21722;DHT22;11023;48.274;7.794;2022-11-20T11:33:04;11.20;99.90
21722;DHT22;11023;48.274;7.794;2022-11-20T11:35:30;11.40;99.90
21722;DHT22;11023;48.274;7.794;2022-11-20T11:38:14;11.40;99.90
21722;DHT22;11023;48.274;7.794;2022-11-20T11:40:40;11.50;99.90
21722;DHT22;11023;48.274;7.794;2022-11-20T11:43:16;11.50;99.90
21722;DHT22;11023;48.274;7.794;2022-11-20T11:46:02;11.50;99.90
21722;DHT22;11023;48.274;7.794;2022-11-20T11:48:29;11.40;99.90
21722;DHT22;11023;48.274;7.794;2022-11-20T11:50:55;11.50;99.90
21722;DHT22;11023;48.274;7.794;2022-11-20T11:53:22;11.50;99.90
21722;DHT22;11023;48.274;7.794;2022-11-20T11:56:05;11.50;99.90
21722;DHT22;11023;48.274;7.794;2022-11-20T11:58:41;11.50;99.90
21722;DHT22;11023;48.274;7.794;2022-11-20T12:10:02;11.40;99.90
21722;DHT22;11023;48.274;7.794;2022-11-20T12:12:35;11.40;99.90
21722;DHT22;11023;48.274;7.794;2022-11-20T12:15:02;11.40;99.90
21722;DHT22;11023;48.274;7.794;2022-11-20T12:17:29;11.40;99.90
21722;DHT22;11023;48.274;7.794;2022-11-20T12:19:55;11.30;99.90
21722;DHT22;11023;48.274;7.794;2022-11-20T12:36:44;11.20;99.90
21722;DHT22;11023;48.274;7.794;2022-11-20T12:39:35;11.20;99.90
21722;DHT22;11023;48.274;7.794;2022-11-20T12:48:03;11.60;99.90
21722;DHT22;11023;48.274;7.794;2022-11-20T12:53:42;11.70;99.90
21722;DHT22;11023;48.274;7.794;2022-11-20T12:59:09;11.60;99.90
21722;DHT22;11023;48.274;7.794;2022-11-20T13:01:54;11.60;99.90
21722;DHT22;11023;48.274;7.794;2022-11-20T13:04:30;11.60;99.90
21722;DHT22;11023;48.274;7.794;2022-11-20T13:07:08;11.50;99.90
21722;DHT22;11023;48.274;7.794;2022-11-20T13:09:38;11.50;99.90
21722;DHT22;11023;48.274;7.794;2022-11-20T13:12:17;11.50;99.90
21722;DHT22;11023;48.274;7.794;2022-11-20T13:17:52;11.50;99.90
21722;DHT22;11023;48.274;7.794;2022-11-20T13:20:20;11.50;99.90
21722;DHT22;11023;48.274;7.794;2022-11-20T13:25:42;11.60;99.90
21722;DHT22;11023;48.274;7.794;2022-11-20T13:30:47;11.60;99.90
21722;DHT22;11023;48.274;7.794;2022-11-20T13:33:34;11.70;99.90
21722;DHT22;11023;48.274;7.794;2022-11-20T13:36:25;11.70;99.90
21722;DHT22;11023;48.274;7.794;2022-11-20T13:38:53;11.60;99.90
21722;DHT22;11023;48.274;7.794;2022-11-20T13:41:36;11.60;99.90
21722;DHT22;11023;48.274;7.794;2022-11-20T13:44:20;11.50;99.90
21722;DHT22;11023;48.274;7.794;2022-11-20T13:46:47;11.40;99.90
21722;DHT22;11023;48.274;7.794;2022-11-20T13:49:37;11.40;99.90
21722;DHT22;11023;48.274;7.794;2022-11-20T13:54:55;11.30;99.90
21722;DHT22;11023;48.274;7.794;2022-11-20T14:00:18;11.30;99.90
21722;DHT22;11023;48.274;7.794;2022-11-20T14:05:38;11.20;99.90
21722;DHT22;11023;48.274;7.794;2022-11-20T14:08:09;11.20;99.90
21722;DHT22;11023;48.274;7.794;2022-11-20T14:10:38;11.10;99.90
21722;DHT22;11023;48.274;7.794;2022-11-20T14:13:18;11.10;99.90
21722;DHT22;11023;48.274;7.794;2022-11-20T14:15:44;11.10;99.90
21722;DHT22;11023;48.274;7.794;2022-11-20T14:18:20;11.00;99.90
21722;DHT22;11023;48.274;7.794;2022-11-20T14:20:49;11.00;99.90
21722;DHT22;11023;48.274;7.794;2022-11-20T14:23:24;10.90;99.90
21722;DHT22;11023;48.274;7.794;2022-11-20T14:25:50;10.90;99.90
21722;DHT22;11023;48.274;7.794;2022-11-20T14:28:29;10.80;99.90
21722;DHT22;11023;48.274;7.794;2022-11-20T14:30:56;10.80;99.90
21722;DHT22;11023;48.274;7.794;2022-11-20T14:33:23;10.80;99.90
21722;DHT22;11023;48.274;7.794;2022-11-20T14:35:53;10.70;99.90
21722;DHT22;11023;48.274;7.794;2022-11-20T14:38:26;10.70;99.90
21722;DHT22;11023;48.274;7.794;2022-11-20T14:40:52;10.60;99.90
21722;DHT22;11023;48.274;7.794;2022-11-20T14:43:22;10.60;99.90
21722;DHT22;11023;48.274;7.794;2022-11-20T14:46:05;10.60;99.90
21722;DHT22;11023;48.274;7.794;2022-11-20T14:48:40;10.50;99.90
21722;DHT22;11023;48.274;7.794;2022-11-20T14:51:23;10.50;99.90
21722;DHT22;11023;48.274;7.794;2022-11-20T14:53:49;10.40;99.90
21722;DHT22;11023;48.274;7.794;2022-11-20T14:56:24;10.40;99.90
21722;DHT22;11023;48.274;7.794;2022-11-20T14:58:59;10.30;99.90
21722;DHT22;11023;48.274;7.794;2022-11-20T15:01:29;10.30;99.90
21722;DHT22;11023;48.274;7.794;2022-11-20T15:04:07;10.20;99.90
21722;DHT22;11023;48.274;7.794;2022-11-20T15:06:34;10.20;99.90
21722;DHT22;11023;48.274;7.794;2022-11-20T15:09:03;10.10;99.90
21722;DHT22;11023;48.274;7.794;2022-11-20T15:11:32;10.00;99.90
21722;DHT22;11023;48.274;7.794;2022-11-20T15:14:03;10.00;99.90
21722;DHT22;11023;48.274;7.794;2022-11-20T15:16:30;9.90;99.90
21722;DHT22;11023;48.274;7.794;2022-11-20T15:18:56;9.90;99.90
21722;DHT22;11023;48.274;7.794;2022-11-20T15:21:22;9.90;99.90
21722;DHT22;11023;48.274;7.794;2022-11-20T15:23:48;9.90;99.90
21722;DHT22;11023;48.274;7.794;2022-11-20T15:26:20;9.90;99.90
21722;DHT22;11023;48.274;7.794;2022-11-20T15:28:47;9.80;99.90
21722;DHT22;11023;48.274;7.794;2022-11-20T15:31:17;9.80;99.90
21722;DHT22;11023;48.274;7.794;2022-11-20T15:33:43;9.80;99.90
21722;DHT22;11023;48.274;7.794;2022-11-20T15:36:09;9.70;99.90
21722;DHT22;11023;48.274;7.794;2022-11-20T15:38:36;9.70;99.90
21722;DHT22;11023;48.274;7.794;2022-11-20T15:41:01;9.60;99.90
21722;DHT22;11023;48.274;7.794;2022-11-20T15:43:27;9.60;99.90
21722;DHT22;11023;48.274;7.794;2022-11-20T15:45:56;9.60;99.90
21722;DHT22;11023;48.274;7.794;2022-11-20T15:48:44;9.50;99.90
21722;DHT22;11023;48.274;7.794;2022-11-20T15:53:38;9.50;99.90
21722;DHT22;11023;48.274;7.794;2022-11-20T15:56:04;9.40;99.90
21722;DHT22;11023;48.274;7.794;2022-11-20T15:58:30;9.50;99.90
21722;DHT22;11023;48.274;7.794;2022-11-20T16:00:56;9.40;99.90
21722;DHT22;11023;48.274;7.794;2022-11-20T16:03:22;9.40;99.90
21722;DHT22;11023;48.274;7.794;2022-11-20T16:05:48;9.40;99.90
21722;DHT22;11023;48.274;7.794;2022-11-20T16:08:14;9.50;99.90
21722;DHT22;11023;48.274;7.794;2022-11-20T16:10:40;9.40;99.90
21722;DHT22;11023;48.274;7.794;2022-11-20T16:13:12;9.40;99.90
21722;DHT22;11023;48.274;7.794;2022-11-20T16:15:58;9.30;99.90
21722;DHT22;11023;48.274;7.794;2022-11-20T16:18:25;9.30;99.90
21722;DHT22;11023;48.274;7.794;2022-11-20T16:20:52;9.40;99.90
21722;DHT22;11023;48.274;7.794;2022-11-20T16:23:18;9.30;99.90
21722;DHT22;11023;48.274;7.794;2022-11-20T16:25:44;9.30;99.90
21722;DHT22;11023;48.274;7.794;2022-11-20T16:28:11;9.30;99.90
21722;DHT22;11023;48.274;7.794;2022-11-20T16:30:37;9.30;99.90
21722;DHT22;11023;48.274;7.794;2022-11-20T16:33:03;9.30;99.90
21722;DHT22;11023;48.274;7.794;2022-11-20T16:35:30;9.20;99.90
21722;DHT22;11023;48.274;7.794;2022-11-20T16:38:01;9.20;99.90
21722;DHT22;11023;48.274;7.794;2022-11-20T16:40:27;9.20;99.90
21722;DHT22;11023;48.274;7.794;2022-11-20T16:42:53;9.20;99.90
21722;DHT22;11023;48.274;7.794;2022-11-20T16:45:19;9.20;99.90
21722;DHT22;11023;48.274;7.794;2022-11-20T16:47:45;9.10;99.90
21722;DHT22;11023;48.274;7.794;2022-11-20T16:50:11;9.10;99.90
21722;DHT22;11023;48.274;7.794;2022-11-20T16:52:36;9.20;99.90
21722;DHT22;11023;48.274;7.794;2022-11-20T16:55:02;9.20;99.90
21722;DHT22;11023;48.274;7.794;2022-11-20T16:57:29;9.20;99.90
21722;DHT22;11023;48.274;7.794;2022-11-20T16:59:55;9.10;99.90
21722;DHT22;11023;48.274;7.794;2022-11-20T17:02:21;9.20;99.90
21722;DHT22;11023;48.274;7.794;2022-11-20T17:04:47;9.10;99.90
21722;DHT22;11023;48.274;7.794;2022-11-20T17:07:13;9.10;99.90
21722;DHT22;11023;48.274;7.794;2022-11-20T17:09:39;9.20;99.90
21722;DHT22;11023;48.274;7.794;2022-11-20T17:12:05;9.10;99.90
21722;DHT22;11023;48.274;7.794;2022-11-20T17:14:30;9.10;99.90
21722;DHT22;11023;48.274;7.794;2022-11-20T17:16:57;9.20;99.90
21722;DHT22;11023;48.274;7.794;2022-11-20T17:19:25;9.10;99.90
21722;DHT22;11023;48.274;7.794;2022-11-20T17:21:50;9.10;99.90
21722;DHT22;11023;48.274;7.794;2022-11-20T17:24:16;9.20;99.90
21722;DHT22;11023;48.274;7.794;2022-11-20T17:26:43;9.20;99.90
21722;DHT22;11023;48.274;7.794;2022-11-20T17:29:16;9.20;99.90
21722;DHT22;11023;48.274;7.794;2022-11-20T17:31:43;9.20;99.90
21722;DHT22;11023;48.274;7.794;2022-11-20T17:34:12;9.20;99.90